Stroby Egede, Denmark
Current Conditions -  °F | °C
As of 4:50 AM on Sunday 26 Oct 2014 (Local Time) from EKRK Reporting Station
Broken Clouds Broken Clouds  
Wind Chill: 10°   Ceiling: 4600
Heat Index: 10°   Visibility: 4mi
Dew Point: 10°   Wind: 8mph
Humidity: 100%   Direction: 200°SSW
Pressure: 30.09"   Gusts: NA
Location:  55.41°N, 12.25°E
Report Text: EKRK 260250Z AUTO 20007KT 7000NDV BKN046/// 10/10 Q1019
Loading
Personal Weather Stations






























Interactive Weather Map
Tropical Storm Tracking
New forecast layout! Learn more

10-Day Weather Forecast

Advertisements
Track Severe Weather on mobile